Brookville, PA (15825)

7:54 PM EST on December 19, 2014 (GMT -0500)
Brookville, PA | Change Station
CLOSE
Current Station
Personal Weather Station
Location: Brookville, PA
Elevation: 1453 ft
Nearby Weather Stations

Elev 1453 ft 41.16 °N, 79.06 °W | Updated 3 seconds ago

Partly Cloudy
Partly Cloudy
21.5 °F
Feels Like 22 °F
N
1.0
Wind Variable Wind from WSW
Gusts 1.0 mph

Today
High -- | Low -- °F
--% Chance of Precip.
Yesterday
High -- | Low -- °F
Precip. -- in
7:37 AM 4:49 PM
Waning Crescent, 5% visible
Pressure 30.24 in
Visibility 10.0 miles
Clouds Few 2200 ft
Windchill 22 °F
Dew Point 19 °F
Humidity 90%
Rainfall 0.00 in
Snow Depth Not available.
UV 0 out of 12
Pollen .10 out of 12
Air Quality Not available.
Flu Activity Not available.
METAR KDUJ 192353Z AUTO 30005KT 10SM FEW022 M05/M08 A3016 RMK AO2 SLP239 T10501078 11022 21050 51012

More Conditions Fewer Conditions

Pressure 30.24 in
Visibility 10.0 miles
Clouds Few 2200 ft
Windchill 22 °F
Dew Point 19 °F
Humidity 90%
Rainfall 0.00 in
Snow Depth Not available.
UV 0 out of 12
Pollen .10 out of 12
Air Quality Not available.
Flu Activity Not available.
METAR KDUJ 192353Z AUTO 30005KT 10SM FEW022 M05/M08 A3016 RMK AO2 SLP239 T10501078 11022 21050 51012

More Conditions Fewer Conditions

10-Day Weather Forecast

Almanac

Astronomy

Dec. 19, 2014 Rise Set
Actual Time
Civil Twilight
Nautical Twilight
Astronomical Twilight
Moon
Length of Visible Light
Length of Day
Tomorrow will be .
, % of the Moon is Illuminated

Today's Extremes

State Highs State Lows

Community

WunderPhotos

Upload Photos

1,779,093 photos uploaded!

WunderBlogs® & News

Nearby

Air Quality

  Air Quality AQ Index Pollutant
Not available.

Snow Depth

Station Depth Elevation

Earthquake Activity

City Distance Mag. Time & Date
Minimum magnitude displayed is 2.5.

Coastal Water Temperatures

Place Temperature

Nearby Weather Stations